sensor_id;sensor_type;location;lat;lon;timestamp;pressure;altitude;pressure_sealevel;temperature;humidity
21877;BME280;11103;43.788;23.710;2023-02-24T00:01:42;94411.16;;;6.95;100.00
21877;BME280;11103;43.788;23.710;2023-02-24T00:04:11;93756.88;;;6.96;100.00
21877;BME280;11103;43.788;23.710;2023-02-24T00:06:39;93575.47;;;6.84;100.00
21877;BME280;11103;43.788;23.710;2023-02-24T00:09:26;91982.97;;;6.95;100.00
21877;BME280;11103;43.788;23.710;2023-02-24T00:11:53;93173.41;;;6.85;100.00
21877;BME280;11103;43.788;23.710;2023-02-24T00:14:20;92009.25;;;6.76;100.00
21877;BME280;11103;43.788;23.710;2023-02-24T00:16:46;91983.22;;;6.79;100.00
21877;BME280;11103;43.788;23.710;2023-02-24T00:19:13;89989.91;;;6.82;100.00
21877;BME280;11103;43.788;23.710;2023-02-24T00:21:41;89729.97;;;6.80;100.00
21877;BME280;11103;43.788;23.710;2023-02-24T00:24:07;90256.97;;;6.66;100.00
21877;BME280;11103;43.788;23.710;2023-02-24T00:26:33;88766.06;;;6.71;100.00
21877;BME280;11103;43.788;23.710;2023-02-24T00:28:58;87368.66;;;6.77;100.00
21877;BME280;11103;43.788;23.710;2023-02-24T00:31:27;87525.50;;;6.76;100.00
21877;BME280;11103;43.788;23.710;2023-02-24T00:33:58;87718.44;;;6.78;100.00
21877;BME280;11103;43.788;23.710;2023-02-24T00:36:25;88253.09;;;6.78;100.00
21877;BME280;11103;43.788;23.710;2023-02-24T00:38:54;87902.78;;;6.76;100.00
21877;BME280;11103;43.788;23.710;2023-02-24T00:41:22;87295.28;;;6.76;100.00
21877;BME280;11103;43.788;23.710;2023-02-24T00:43:48;85669.19;;;6.63;100.00
21877;BME280;11103;43.788;23.710;2023-02-24T00:46:15;85553.72;;;6.82;100.00
21877;BME280;11103;43.788;23.710;2023-02-24T00:48:42;85258.31;;;6.76;100.00
21877;BME280;11103;43.788;23.710;2023-02-24T00:51:10;85187.94;;;6.74;100.00
21877;BME280;11103;43.788;23.710;2023-02-24T00:53:39;84428.19;;;6.70;100.00
21877;BME280;11103;43.788;23.710;2023-02-24T00:56:06;83948.38;;;6.75;100.00
21877;BME280;11103;43.788;23.710;2023-02-24T00:58:34;83327.31;;;6.74;100.00
21877;BME280;11103;43.788;23.710;2023-02-24T01:01:01;82868.84;;;6.76;100.00
21877;BME280;11103;43.788;23.710;2023-02-24T01:03:28;82921.03;;;6.82;100.00
21877;BME280;11103;43.788;23.710;2023-02-24T01:05:54;82416.59;;;6.90;100.00
21877;BME280;11103;43.788;23.710;2023-02-24T01:08:19;82678.25;;;6.95;100.00
21877;BME280;11103;43.788;23.710;2023-02-24T01:10:58;84086.69;;;6.92;100.00
21877;BME280;11103;43.788;23.710;2023-02-24T01:13:43;84733.75;;;6.96;100.00
21877;BME280;11103;43.788;23.710;2023-02-24T01:16:09;85575.22;;;6.96;100.00
21877;BME280;11103;43.788;23.710;2023-02-24T01:18:37;85747.56;;;6.98;100.00
21877;BME280;11103;43.788;23.710;2023-02-24T01:21:02;86016.31;;;7.01;100.00
21877;BME280;11103;43.788;23.710;2023-02-24T01:23:28;86744.16;;;7.02;100.00
21877;BME280;11103;43.788;23.710;2023-02-24T01:25:53;86940.75;;;7.03;100.00
21877;BME280;11103;43.788;23.710;2023-02-24T01:28:22;87666.09;;;7.01;100.00
21877;BME280;11103;43.788;23.710;2023-02-24T01:30:48;86872.41;;;7.19;100.00
21877;BME280;11103;43.788;23.710;2023-02-24T01:33:13;89035.88;;;7.00;100.00
21877;BME280;11103;43.788;23.710;2023-02-24T01:35:39;89324.34;;;7.00;100.00
21877;BME280;11103;43.788;23.710;2023-02-24T01:38:05;89008.41;;;7.05;100.00
21877;BME280;11103;43.788;23.710;2023-02-24T01:40:31;89750.78;;;7.00;100.00
21877;BME280;11103;43.788;23.710;2023-02-24T01:42:56;90560.09;;;6.89;100.00
21877;BME280;11103;43.788;23.710;2023-02-24T01:45:25;88758.75;;;6.93;100.00
21877;BME280;11103;43.788;23.710;2023-02-24T01:47:56;87184.03;;;6.89;100.00
21877;BME280;11103;43.788;23.710;2023-02-24T01:50:25;85474.06;;;6.97;100.00
21877;BME280;11103;43.788;23.710;2023-02-24T01:52:54;85822.06;;;6.86;100.00
21877;BME280;11103;43.788;23.710;2023-02-24T01:55:25;86268.75;;;6.69;100.00
21877;BME280;11103;43.788;23.710;2023-02-24T01:57:55;83567.41;;;6.81;100.00
21877;BME280;11103;43.788;23.710;2023-02-24T02:00:21;83646.31;;;6.70;100.00
21877;BME280;11103;43.788;23.710;2023-02-24T02:03:15;83183.06;;;6.74;100.00
21877;BME280;11103;43.788;23.710;2023-02-24T02:05:42;83069.25;;;6.71;100.00
21877;BME280;11103;43.788;23.710;2023-02-24T02:08:13;82359.72;;;6.73;100.00
21877;BME280;11103;43.788;23.710;2023-02-24T02:10:41;82949.91;;;6.70;100.00
21877;BME280;11103;43.788;23.710;2023-02-24T02:13:09;82697.03;;;6.67;100.00
21877;BME280;11103;43.788;23.710;2023-02-24T02:15:45;81401.59;;;6.64;100.00
21877;BME280;11103;43.788;23.710;2023-02-24T02:18:39;79834.00;;;6.60;100.00
21877;BME280;11103;43.788;23.710;2023-02-24T02:23:58;77201.50;;;6.51;100.00
21877;BME280;11103;43.788;23.710;2023-02-24T02:40:16;74035.31;;;6.50;100.00
21877;BME280;11103;43.788;23.710;2023-02-24T02:42:54;74206.22;;;6.28;100.00
21877;BME280;11103;43.788;23.710;2023-02-24T02:45:37;71878.06;;;6.51;100.00
21877;BME280;11103;43.788;23.710;2023-02-24T02:48:12;71739.50;;;6.52;100.00
21877;BME280;11103;43.788;23.710;2023-02-24T02:50:40;72391.44;;;6.49;100.00
21877;BME280;11103;43.788;23.710;2023-02-24T02:53:18;70901.84;;;6.56;100.00
21877;BME280;11103;43.788;23.710;2023-02-24T02:58:34;69421.00;;;6.52;100.00
21877;BME280;11103;43.788;23.710;2023-02-24T03:01:02;68624.91;;;6.52;100.00
21877;BME280;11103;43.788;23.710;2023-02-24T03:03:35;67892.38;;;6.56;100.00
21877;BME280;11103;43.788;23.710;2023-02-24T03:06:05;66887.25;;;6.58;100.00
21877;BME280;11103;43.788;23.710;2023-02-24T03:08:36;66429.63;;;6.46;100.00
21877;BME280;11103;43.788;23.710;2023-02-24T03:11:06;65706.31;;;6.31;100.00
21877;BME280;11103;43.788;23.710;2023-02-24T03:13:36;61174.56;;;6.51;100.00
21877;BME280;11103;43.788;23.710;2023-02-24T03:16:06;58491.56;;;6.63;100.00
21877;BME280;11103;43.788;23.710;2023-02-24T03:18:37;58622.81;;;6.62;100.00
21877;BME280;11103;43.788;23.710;2023-02-24T03:21:06;58553.47;;;6.43;100.00
21877;BME280;11103;43.788;23.710;2023-02-24T03:23:48;57787.94;;;6.56;100.00
21877;BME280;11103;43.788;23.710;2023-02-24T03:26:20;55123.78;;;6.62;100.00
21877;BME280;11103;43.788;23.710;2023-02-24T03:31:29;50781.66;;;6.77;100.00
21877;BME280;11103;43.788;23.710;2023-02-24T03:36:48;49996.13;;;6.82;100.00
21877;BME280;11103;43.788;23.710;2023-02-24T03:39:14;49470.31;;;6.84;100.00
21877;BME280;11103;43.788;23.710;2023-02-24T03:42:00;49846.38;;;6.70;100.00
21877;BME280;11103;43.788;23.710;2023-02-24T03:44:27;50295.75;;;6.53;100.00
21877;BME280;11103;43.788;23.710;2023-02-24T03:46:53;44800.81;;;6.62;100.00
21877;BME280;11103;43.788;23.710;2023-02-24T03:49:20;14964.34;;;6.64;100.00
21877;BME280;11103;43.788;23.710;2023-02-24T03:58:04;11753.78;;;6.74;100.00
21877;BME280;11103;43.788;23.710;2023-02-24T04:00:40;11112.97;;;6.81;100.00
21877;BME280;11103;43.788;23.710;2023-02-24T04:08:25;12399.44;;;6.87;100.00
21877;BME280;11103;43.788;23.710;2023-02-24T04:11:02;13042.28;;;6.87;100.00
21877;BME280;11103;43.788;23.710;2023-02-24T04:13:59;13042.03;;;6.86;100.00
21877;BME280;11103;43.788;23.710;2023-02-24T04:16:33;12400.06;;;6.89;100.00
21877;BME280;11103;43.788;23.710;2023-02-24T04:19:07;12078.00;;;6.86;100.00
21877;BME280;11103;43.788;23.710;2023-02-24T04:21:35;12395.22;;;6.70;100.00
21877;BME280;11103;43.788;23.710;2023-02-24T04:24:03;12393.19;;;6.62;100.00
21877;BME280;11103;43.788;23.710;2023-02-24T04:26:36;11431.16;;;6.68;100.00
21877;BME280;11103;43.788;23.710;2023-02-24T04:29:05;11111.09;;;6.73;100.00
21877;BME280;11103;43.788;23.710;2023-02-24T04:31:32;11111.56;;;6.75;100.00
21877;BME280;11103;43.788;23.710;2023-02-24T04:33:59;11110.50;;;6.70;100.00
21877;BME280;11103;43.788;23.710;2023-02-24T04:36:26;11430.09;;;6.64;100.00
21877;BME280;11103;43.788;23.710;2023-02-24T04:38:51;11428.66;;;6.57;100.00
21877;BME280;11103;43.788;23.710;2023-02-24T04:41:18;9826.63;;;6.72;100.00
21877;BME280;11103;43.788;23.710;2023-02-24T04:43:48;9507.50;;;6.81;100.00
21877;BME280;11103;43.788;23.710;2023-02-24T04:46:16;9507.59;;;6.81;100.00
21877;BME280;11103;43.788;23.710;2023-02-24T04:48:42;9827.78;;;6.77;100.00
21877;BME280;11103;43.788;23.710;2023-02-24T04:51:07;10145.34;;;6.61;100.00
21877;BME280;11103;43.788;23.710;2023-02-24T04:53:33;10143.72;;;6.53;100.00
21877;BME280;11103;43.788;23.710;2023-02-24T04:56:02;7580.31;;;6.71;100.00
21877;BME280;11103;43.788;23.710;2023-02-24T04:58:33;7259.97;;;6.74;100.00
21877;BME280;11103;43.788;23.710;2023-02-24T05:00:59;6939.88;;;6.78;100.00
21877;BME280;11103;43.788;23.710;2023-02-24T05:03:25;6940.63;;;6.82;100.00
21877;BME280;11103;43.788;23.710;2023-02-24T05:05:56;7258.44;;;6.65;100.00
21877;BME280;11103;43.788;23.710;2023-02-24T05:08:25;6939.22;;;6.74;100.00
21877;BME280;11103;43.788;23.710;2023-02-24T05:10:51;5977.63;;;6.77;100.00
21877;BME280;11103;43.788;23.710;2023-02-24T05:13:23;5015.91;;;6.77;100.00
21877;BME280;11103;43.788;23.710;2023-02-24T05:15:55;4374.91;;;6.78;100.00
21877;BME280;11103;43.788;23.710;2023-02-24T05:18:21;3413.69;;;6.79;100.00
21877;BME280;11103;43.788;23.710;2023-02-24T05:20:50;2772.69;;;6.77;100.00
21877;BME280;11103;43.788;23.710;2023-02-24T05:23:37;1491.72;;;6.78;100.00
21877;BME280;11103;43.788;23.710;2023-02-24T05:26:05;211.03;;;6.77;100.00
21877;BME280;11103;43.788;23.710;2023-02-24T05:28:35;-749.56;;;6.65;100.00
21877;BME280;11103;43.788;23.710;2023-02-24T05:31:15;-1389.25;;;6.69;100.00
21877;BME280;11103;43.788;23.710;2023-02-24T05:33:43;-2348.78;;;6.68;100.00
21877;BME280;11103;43.788;23.710;2023-02-24T05:36:11;-3308.03;;;6.71;100.00
21877;BME280;11103;43.788;23.710;2023-02-24T05:38:40;-3947.47;;;6.75;100.00
21877;BME280;11103;43.788;23.710;2023-02-24T05:41:11;-4586.91;;;6.81;100.00
21877;BME280;11103;43.788;23.710;2023-02-24T05:43:43;-4906.72;;;6.87;100.00
21877;BME280;11103;43.788;23.710;2023-02-24T05:46:14;-5865.84;;;6.94;100.00
21877;BME280;11103;43.788;23.710;2023-02-24T05:48:39;-6185.53;;;6.96;100.00
21877;BME280;11103;43.788;23.710;2023-02-24T05:51:05;-6505.38;;;7.02;100.00
21877;BME280;11103;43.788;23.710;2023-02-24T05:53:37;-6825.03;;;7.03;100.00
21877;BME280;11103;43.788;23.710;2023-02-24T05:56:06;-7144.34;;;7.00;100.00
21877;BME280;11103;43.788;23.710;2023-02-24T05:58:32;-7462.00;;;6.75;100.00
21877;BME280;11103;43.788;23.710;2023-02-24T06:00:57;-7462.94;;;6.88;100.00
21877;BME280;11103;43.788;23.710;2023-02-24T06:03:30;-7780.84;;;6.69;100.00
21877;BME280;11103;43.788;23.710;2023-02-24T06:06:00;-8420.69;;;6.85;100.00
21877;BME280;11103;43.788;23.710;2023-02-24T06:08:33;-9379.41;;;6.94;100.00
21877;BME280;11103;43.788;23.710;2023-02-24T06:11:09;-9699.00;;;6.98;100.00
21877;BME280;11103;43.788;23.710;2023-02-24T06:13:38;-10018.00;;;6.96;100.00
21877;BME280;11103;43.788;23.710;2023-02-24T06:16:04;-10657.19;;;7.03;100.00
21877;BME280;11103;43.788;23.710;2023-02-24T06:18:31;-10656.38;;;6.96;100.00
21877;BME280;11103;43.788;23.710;2023-02-24T06:21:00;-11294.69;;;6.97;100.00
21877;BME280;11103;43.788;23.710;2023-02-24T06:23:26;-11934.09;;;7.06;100.00
21877;BME280;11103;43.788;23.710;2023-02-24T06:25:51;-11933.72;;;7.04;100.00
21877;BME280;11103;43.788;23.710;2023-02-24T06:28:22;-11933.22;;;7.00;100.00
21877;BME280;11103;43.788;23.710;2023-02-24T06:30:48;-11934.09;;;7.06;100.00
21877;BME280;11103;43.788;23.710;2023-02-24T06:33:13;-11934.53;;;7.09;100.00
21877;BME280;11103;43.788;23.710;2023-02-24T06:35:38;-12253.75;;;7.10;100.00
21877;BME280;11103;43.788;23.710;2023-02-24T06:38:04;-11934.47;;;7.09;100.00
21877;BME280;11103;43.788;23.710;2023-02-24T06:40:29;-12573.34;;;7.14;100.00
21877;BME280;11103;43.788;23.710;2023-02-24T06:42:55;-12574.44;;;7.21;100.00
21877;BME280;11103;43.788;23.710;2023-02-24T06:45:22;-12575.06;;;7.25;100.00
21877;BME280;11103;43.788;23.710;2023-02-24T06:47:48;-12252.84;;;7.04;100.00
21877;BME280;11103;43.788;23.710;2023-02-24T06:50:15;-11933.66;;;7.03;100.00
21877;BME280;11103;43.788;23.710;2023-02-24T06:52:45;-11612.84;;;6.91;100.00
21877;BME280;11103;43.788;23.710;2023-02-24T06:55:11;-11612.28;;;6.87;100.00
21877;BME280;11103;43.788;23.710;2023-02-24T06:57:57;-12248.50;;;6.76;100.00
21877;BME280;11103;43.788;23.710;2023-02-24T07:00:24;-13842.34;;;6.75;100.00
21877;BME280;11103;43.788;23.710;2023-02-24T07:03:22;-15109.41;;;6.37;100.00
21877;BME280;11103;43.788;23.710;2023-02-24T07:05:50;-16714.38;;;6.97;100.00
21877;BME280;11103;43.788;23.710;2023-02-24T07:08:22;-18308.69;;;7.05;100.00
21877;BME280;11103;43.788;23.710;2023-02-24T07:10:57;-17985.09;;;6.84;100.00
21877;BME280;11103;43.788;23.710;2023-02-24T07:13:24;-18941.28;;;6.89;100.00
21877;BME280;11103;43.788;23.710;2023-02-24T07:15:50;-18945.78;;;6.99;100.00
21877;BME280;11103;43.788;23.710;2023-02-24T07:18:17;-18942.22;;;6.86;100.00
21877;BME280;11103;43.788;23.710;2023-02-24T07:20:44;-18949.44;;;7.13;100.00
21877;BME280;11103;43.788;23.710;2023-02-24T07:23:15;-18938.16;;;6.70;100.00
21877;BME280;11103;43.788;23.710;2023-02-24T07:25:41;-18946.16;;;7.01;100.00
21877;BME280;11103;43.788;23.710;2023-02-24T07:28:09;-18952.19;;;7.24;100.00
21877;BME280;11103;43.788;23.710;2023-02-24T07:30:36;-18953.38;;;7.29;100.00
21877;BME280;11103;43.788;23.710;2023-02-24T07:33:02;-18949.72;;;7.14;100.00
21877;BME280;11103;43.788;23.710;2023-02-24T07:35:28;-18949.44;;;7.13;100.00
21877;BME280;11103;43.788;23.710;2023-02-24T07:37:54;-18947.22;;;7.05;100.00
21877;BME280;11103;43.788;23.710;2023-02-24T07:40:20;-18957.56;;;7.45;100.00
21877;BME280;11103;43.788;23.710;2023-02-24T07:42:51;-18962.56;;;7.64;100.00
21877;BME280;11103;43.788;23.710;2023-02-24T07:45:18;-18965.84;;;7.76;100.00
21877;BME280;11103;43.788;23.710;2023-02-24T07:47:44;-18964.25;;;7.70;100.00
21877;BME280;11103;43.788;23.710;2023-02-24T07:50:10;-18969.38;;;7.90;100.00
21877;BME280;11103;43.788;23.710;2023-02-24T07:52:41;-18972.66;;;8.03;100.00
21877;BME280;11103;43.788;23.710;2023-02-24T07:55:07;-18655.63;;;8.17;100.00
21877;BME280;11103;43.788;23.710;2023-02-24T07:57:36;-17057.13;;;8.03;100.00
21877;BME280;11103;43.788;23.710;2023-02-24T08:00:05;-15782.31;;;8.11;100.00
21877;BME280;11103;43.788;23.710;2023-02-24T08:02:47;-14501.50;;;7.92;100.00
21877;BME280;11103;43.788;23.710;2023-02-24T08:05:14;-14506.78;;;8.20;100.00
21877;BME280;11103;43.788;23.710;2023-02-24T08:07:40;-13224.50;;;7.93;100.00
21877;BME280;11103;43.788;23.710;2023-02-24T08:10:07;-13547.84;;;8.16;100.00
21877;BME280;11103;43.788;23.710;2023-02-24T08:12:49;-13549.41;;;8.25;100.00
21877;BME280;11103;43.788;23.710;2023-02-24T08:15:20;-13235.81;;;8.61;100.00
21877;BME280;11103;43.788;23.710;2023-02-24T08:17:50;-12279.88;;;8.84;100.00
21877;BME280;11103;43.788;23.710;2023-02-24T08:20:17;-10679.97;;;8.86;100.00
21877;BME280;11103;43.788;23.710;2023-02-24T08:22:44;-9078.13;;;8.77;100.00
21877;BME280;11103;43.788;23.710;2023-02-24T08:25:17;-7476.81;;;8.80;100.00
21877;BME280;11103;43.788;23.710;2023-02-24T08:27:53;-5552.81;;;8.54;100.00
21877;BME280;11103;43.788;23.710;2023-02-24T08:30:23;-5874.31;;;8.77;100.00
21877;BME280;11103;43.788;23.710;2023-02-24T08:32:52;-6196.44;;;9.09;100.00
21877;BME280;11103;43.788;23.710;2023-02-24T08:35:32;-5232.03;;;8.46;100.00
21877;BME280;11103;43.788;23.710;2023-02-24T08:38:20;-4592.25;;;8.93;100.00
21877;BME280;11103;43.788;23.710;2023-02-24T08:40:51;-3950.44;;;8.74;100.00
21877;BME280;11103;43.788;23.710;2023-02-24T08:43:27;-4271.41;;;8.89;100.00
21877;BME280;11103;43.788;23.710;2023-02-24T08:49:03;-2667.22;;;8.86;100.00
21877;BME280;11103;43.788;23.710;2023-02-24T08:51:38;-2346.41;;;8.77;100.00
21877;BME280;11103;43.788;23.710;2023-02-24T08:54:14;-2988.09;;;8.93;100.00
21877;BME280;11103;43.788;23.710;2023-02-24T08:56:46;-1062.84;;;8.70;100.00
21877;BME280;11103;43.788;23.710;2023-02-24T08:59:20;-3309.03;;;9.01;100.00
21877;BME280;11103;43.788;23.710;2023-02-24T09:02:14;-3951.44;;;9.45;100.00
21877;BME280;11103;43.788;23.710;2023-02-24T09:04:50;-1382.97;;;9.00;100.00
21877;BME280;11103;43.788;23.710;2023-02-24T09:07:40;-1382.16;;;9.30;100.00
21877;BME280;11103;43.788;23.710;2023-02-24T09:10:13;-96.34;;;9.40;100.00
21877;BME280;11103;43.788;23.710;2023-02-24T09:12:42;546.97;;;9.46;100.00
21877;BME280;11103;43.788;23.710;2023-02-24T09:15:09;870.81;;;9.82;100.00
21877;BME280;11103;43.788;23.710;2023-02-24T09:17:35;1836.53;;;9.86;100.00
21877;BME280;11103;43.788;23.710;2023-02-24T09:20:13;5377.31;;;9.74;100.00
21877;BME280;11103;43.788;23.710;2023-02-24T09:22:57;7627.50;;;9.41;100.00
21877;BME280;11103;43.788;23.710;2023-02-24T09:25:29;6660.22;;;9.36;100.00
21877;BME280;11103;43.788;23.710;2023-02-24T09:28:19;4733.06;;;9.74;100.00
21877;BME280;11103;43.788;23.710;2023-02-24T09:30:49;6345.63;;;9.85;100.00
21877;BME280;11103;43.788;23.710;2023-02-24T09:33:44;8282.84;;;10.00;100.00
21877;BME280;11103;43.788;23.710;2023-02-24T09:36:16;10222.84;;;10.18;100.00
21877;BME280;11103;43.788;23.710;2023-02-24T09:38:53;13130.66;;;10.21;100.00
21877;BME280;11103;43.788;23.710;2023-02-24T09:46:54;21540.28;;;10.13;100.00
21877;BME280;11103;43.788;23.710;2023-02-24T09:49:32;21543.13;;;10.20;100.00
21877;BME280;11103;43.788;23.710;2023-02-24T09:52:09;21548.00;;;10.32;100.00
21877;BME280;11103;43.788;23.710;2023-02-24T09:54:41;23160.78;;;10.14;100.00
21877;BME280;11103;43.788;23.710;2023-02-24T09:57:22;21871.66;;;10.31;100.00
21877;BME280;11103;43.788;23.710;2023-02-24T10:00:01;22211.63;;;10.69;100.00
21877;BME280;11103;43.788;23.710;2023-02-24T10:03:03;26106.75;;;10.72;100.00
21877;BME280;11103;43.788;23.710;2023-02-24T10:05:58;29039.63;;;10.90;100.00
21877;BME280;11103;43.788;23.710;2023-02-24T10:08:39;34221.41;;;10.51;100.00
21877;BME280;11103;43.788;23.710;2023-02-24T10:11:08;31635.19;;;10.79;100.00
21877;BME280;11103;43.788;23.710;2023-02-24T10:13:46;30671.53;;;11.01;100.00
21877;BME280;11103;43.788;23.710;2023-02-24T10:16:15;30358.72;;;11.23;100.00
21877;BME280;11103;43.788;23.710;2023-02-24T10:19:05;33614.44;;;11.24;100.00
21877;BME280;11103;43.788;23.710;2023-02-24T10:22:01;35561.88;;;11.12;100.00
21877;BME280;11103;43.788;23.710;2023-02-24T10:24:40;38830.81;;;11.25;100.00
21877;BME280;11103;43.788;23.710;2023-02-24T10:32:49;40485.38;;;11.58;100.00
21877;BME280;11103;43.788;23.710;2023-02-24T10:35:19;42120.44;;;11.60;100.00
21877;BME280;11103;43.788;23.710;2023-02-24T10:37:45;43759.09;;;11.66;100.00
21877;BME280;11103;43.788;23.710;2023-02-24T10:40:12;46060.53;;;11.81;100.00
21877;BME280;11103;43.788;23.710;2023-02-24T10:42:49;49984.59;;;11.76;100.00
21877;BME280;11103;43.788;23.710;2023-02-24T10:47:51;47387.66;;;12.03;100.00
21877;BME280;11103;43.788;23.710;2023-02-24T10:50:40;50361.81;;;12.32;100.00
21877;BME280;11103;43.788;23.710;2023-02-24T10:53:14;57582.00;;;12.31;100.00
21877;BME280;11103;43.788;23.710;2023-02-24T10:55:54;59830.72;;;11.80;100.00
21877;BME280;11103;43.788;23.710;2023-02-24T10:58:41;60176.09;;;11.97;100.00
21877;BME280;11103;43.788;23.710;2023-02-24T11:01:17;62480.81;;;12.00;100.00
21877;BME280;11103;43.788;23.710;2023-02-24T11:03:53;62820.16;;;12.09;100.00
21877;BME280;11103;43.788;23.710;2023-02-24T11:06:48;63120.53;;;11.83;100.00
21877;BME280;11103;43.788;23.710;2023-02-24T11:09:22;65426.88;;;11.86;100.00
21877;BME280;11103;43.788;23.710;2023-02-24T11:11:55;65417.19;;;11.77;100.00
21877;BME280;11103;43.788;23.710;2023-02-24T11:14:54;64100.06;;;11.76;100.00
21877;BME280;11103;43.788;23.710;2023-02-24T11:17:54;61799.34;;;11.77;100.00
21877;BME280;11103;43.788;23.710;2023-02-24T11:20:35;59799.34;;;11.50;100.00
21877;BME280;11103;43.788;23.710;2023-02-24T11:23:05;56524.03;;;11.57;100.00
21877;BME280;11103;43.788;23.710;2023-02-24T11:25:39;58157.81;;;11.50;100.00
21877;BME280;11103;43.788;23.710;2023-02-24T11:33:59;54885.34;;;11.59;100.00
21877;BME280;11103;43.788;23.710;2023-02-24T11:39:26;55206.56;;;11.52;100.00
21877;BME280;11103;43.788;23.710;2023-02-24T11:41:59;57505.97;;;11.55;100.00
21877;BME280;11103;43.788;23.710;2023-02-24T11:47:22;59148.84;;;11.56;100.00
21877;BME280;11103;43.788;23.710;2023-02-24T11:52:33;59155.06;;;11.62;100.00
21877;BME280;11103;43.788;23.710;2023-02-24T11:55:02;58825.66;;;11.61;100.00
21877;BME280;11103;43.788;23.710;2023-02-24T11:57:39;60788.88;;;11.54;100.00
21877;BME280;11103;43.788;23.710;2023-02-24T12:00:07;60459.34;;;11.53;100.00
21877;BME280;11103;43.788;23.710;2023-02-24T12:02:52;58833.91;;;11.69;100.00
21877;BME280;11103;43.788;23.710;2023-02-24T12:05:25;59828.63;;;11.78;100.00
21877;BME280;11103;43.788;23.710;2023-02-24T12:07:58;62778.00;;;11.70;100.00
21877;BME280;11103;43.788;23.710;2023-02-24T12:15:42;67328.91;;;11.23;100.00
21877;BME280;11103;43.788;23.710;2023-02-24T12:18:49;61408.44;;;11.19;100.00
21877;BME280;11103;43.788;23.710;2023-02-24T12:21:24;58471.25;;;11.35;100.00
21877;BME280;11103;43.788;23.710;2023-02-24T12:23:56;59142.66;;;11.50;100.00
21877;BME280;11103;43.788;23.710;2023-02-24T12:26:27;58472.25;;;11.36;100.00
21877;BME280;11103;43.788;23.710;2023-02-24T12:42:30;59436.72;;;11.17;100.00
21877;BME280;11103;43.788;23.710;2023-02-24T12:45:25;59119.91;;;11.28;100.00
21877;BME280;11103;43.788;23.710;2023-02-24T12:51:03;58815.91;;;11.52;100.00
21877;BME280;11103;43.788;23.710;2023-02-24T12:53:43;61394.50;;;11.06;100.00
21877;BME280;11103;43.788;23.710;2023-02-24T12:58:47;64054.28;;;11.35;100.00
21877;BME280;11103;43.788;23.710;2023-02-24T13:01:31;63108.97;;;11.72;100.00
21877;BME280;11103;43.788;23.710;2023-02-24T13:07:00;67068.78;;;11.82;100.00
21877;BME280;11103;43.788;23.710;2023-02-24T13:15:03;78287.34;;;11.86;100.00
21877;BME280;11103;43.788;23.710;2023-02-24T13:17:29;75630.41;;;11.75;100.00
21877;BME280;11103;43.788;23.710;2023-02-24T13:19:55;71974.97;;;11.53;100.00
21877;BME280;11103;43.788;23.710;2023-02-24T13:22:27;70369.06;;;11.87;100.00
21877;BME280;11103;43.788;23.710;2023-02-24T13:24:55;73000.56;;;11.82;100.00
21877;BME280;11103;43.788;23.710;2023-02-24T13:27:26;73979.31;;;11.74;100.00
21877;BME280;11103;43.788;23.710;2023-02-24T13:29:58;73001.22;;;11.83;100.00
21877;BME280;11103;43.788;23.710;2023-02-24T13:32:41;74971.69;;;11.76;100.00
21877;BME280;11103;43.788;23.710;2023-02-24T13:37:42;74621.66;;;11.60;100.00
21877;BME280;11103;43.788;23.710;2023-02-24T13:43:02;73013.25;;;11.92;100.00
21877;BME280;11103;43.788;23.710;2023-02-24T13:45:31;74989.22;;;11.89;100.00
21877;BME280;11103;43.788;23.710;2023-02-24T13:48:36;72687.16;;;11.96;100.00
21877;BME280;11103;43.788;23.710;2023-02-24T14:01:57;80994.22;;;12.32;100.00
21877;BME280;11103;43.788;23.710;2023-02-24T14:04:29;82654.66;;;12.36;100.00
21877;BME280;11103;43.788;23.710;2023-02-24T14:07:02;83324.00;;;12.41;100.00
21877;BME280;11103;43.788;23.710;2023-02-24T14:09:36;86645.94;;;12.47;100.00
21877;BME280;11103;43.788;23.710;2023-02-24T14:12:19;88319.78;;;12.58;100.00
21877;BME280;11103;43.788;23.710;2023-02-24T14:14:46;91280.47;;;12.41;100.00
21877;BME280;11103;43.788;23.710;2023-02-24T14:17:33;98909.00;;;12.33;100.00
21877;BME280;11103;43.788;23.710;2023-02-24T14:22:46;95262.31;;;12.39;100.00
21877;BME280;11103;43.788;23.710;2023-02-24T14:25:13;95228.66;;;12.18;100.00
21877;BME280;11103;43.788;23.710;2023-02-24T14:27:42;93184.09;;;11.85;100.00
21877;BME280;11103;43.788;23.710;2023-02-24T14:30:35;83929.78;;;12.02;100.00
21877;BME280;11103;43.788;23.710;2023-02-24T14:33:03;86933.91;;;12.18;100.00
21877;BME280;11103;43.788;23.710;2023-02-24T14:35:33;87274.34;;;12.24;100.00
21877;BME280;11103;43.788;23.710;2023-02-24T14:37:59;84000.84;;;12.51;100.00
21877;BME280;11103;43.788;23.710;2023-02-24T14:40:24;89678.53;;;12.78;100.00
21877;BME280;11103;43.788;23.710;2023-02-24T14:42:51;94674.41;;;12.86;100.00
21877;BME280;11103;43.788;23.710;2023-02-24T14:45:20;99674.50;;;12.92;100.00
21877;BME280;11103;43.788;23.710;2023-02-24T14:47:46;102301.53;;;12.70;100.00
21877;BME280;11103;43.788;23.710;2023-02-24T14:50:16;103591.50;;;12.46;100.00
21877;BME280;11103;43.788;23.710;2023-02-24T14:52:49;101481.66;;;11.81;100.00
21877;BME280;11103;43.788;23.710;2023-02-24T15:00:49;78233.81;;;11.47;100.00
21877;BME280;11103;43.788;23.710;2023-02-24T15:03:18;75627.13;;;11.72;100.00
21877;BME280;11103;43.788;23.710;2023-02-24T15:05:53;75293.19;;;11.69;100.00
21877;BME280;11103;43.788;23.710;2023-02-24T15:08:26;75638.94;;;11.81;100.00
21877;BME280;11103;43.788;23.710;2023-02-24T15:10:53;75936.09;;;11.56;100.00
21877;BME280;11103;43.788;23.710;2023-02-24T15:13:41;77194.03;;;11.09;100.00
21877;BME280;11103;43.788;23.710;2023-02-24T15:16:21;71903.81;;;10.96;100.00